Sluck, Belarus

7:54 PM MSK on February 14, 2016 (GMT +0300)
Minsk-2 | | Change Station
CLOSE
Current Station
Airport
Location: Minsk In-Min,
Elevation: 669 ft
Nearby Weather Stations

Elev 669 ft 53.88 °N, 28.03 °E | Updated 4 minutes ago

Snow Showers
Showers Snow
32 °F
Feels Like 32 °F
N
2
Wind Variable Wind from West

Today
High -- | Low -- °F
--% Chance of Precip.
Yesterday
High -- | Low -- °F
Precip. -- in
Pressure 29.44 in
Visibility 1.1 miles
Clouds Mostly Cloudy 500 ft
Overcast 2000 ft
Dew Point 32 °F
Humidity 100%
Rainfall 0.00 in
Snow Depth Not available.
8:30 AM 6:18 PM
Waxing Crescent, 43% visible
SPECI UMMS 141650Z 26001MPS 1700 SHSN BKN005 OVC020CB M00/M00 Q0997 R31/610441 TEMPO 1200
Pressure 29.44 in
Visibility 1.1 miles
Clouds Mostly Cloudy 500 ft
Overcast 2000 ft
Dew Point 32 °F
Humidity 100%
Rainfall 0.00 in
Snow Depth Not available.
8:30 AM 6:18 PM
Waxing Crescent, 43% visible
SPECI UMMS 141650Z 26001MPS 1700 SHSN BKN005 OVC020CB M00/M00 Q0997 R31/610441 TEMPO 1200

10-Day Weather Forecast

Almanac

Astronomy

Feb. 14, 2016 Rise Set
Actual Time
Civil Twilight
Nautical Twilight
Astronomical Twilight
Moon
Length of Visible Light
Length of Day
Tomorrow will be .
, % of the Moon is Illuminated

Today's Extremes

Country Highs Country Lows

Community

WunderPhotos

Upload Photos

1,892,837 photos uploaded!

WunderBlog® & News

Nearby

Air Quality

  Air Quality AQ Index Pollutant
Not available.

Snow Depth

Station Depth Elevation

Earthquake Activity

City Distance Mag. Time & Date
Minimum magnitude displayed is 2.5.

Coastal Water Temperatures

Place Temperature

Stations

Nearby Weather Stations

Station Location Temp. Windchill Dew Point Humidity Wind Precip. Elev Updated Type